Time;durP1;ratioP1;P1;durP2;ratioP2;P2;SDS_P1;SDS_P2;PMS_P1;PMS_P2;Temp;Humidity;BMP_temperature;BMP_pressure;BME280_temperature;BME280_humidity;BME280_pressure;Samples;Min_cycle;Max_cycle;Signal;HPM_P1;HPM_P2
2023/04/03 00:00:42;;;;;;;6.87;4.00;;;;;;;10.08;100.00;100687.09;2079668;28;20339;-65
2023/04/03 00:01:43;;;;;;;5.97;4.73;;;;;;;11.07;100.00;100841.69;2080618;28;20599;-65
2023/04/03 00:02:43;;;;;;;5.87;4.33;;;;;;;11.03;100.00;100829.13;2082348;28;20247;-65
2023/04/03 00:03:43;;;;;;;5.97;4.40;;;;;;;11.02;100.00;100825.56;2087863;28;20574;-65
2023/04/03 00:04:44;;;;;;;4.67;4.27;;;;;;;11.12;100.00;100834.88;2080524;28;20204;-65
2023/04/03 00:05:46;;;;;;;5.53;4.43;;;;;;;11.16;100.00;100835.56;2088027;28;20189;-65
2023/04/03 00:06:46;;;;;;;8.53;4.87;;;;;;;10.52;100.00;100730.09;2081425;28;20205;-65
2023/04/03 00:07:47;;;;;;;5.73;4.60;;;;;;;11.21;100.00;100824.75;2087028;28;20439;-65
2023/04/03 00:08:48;;;;;;;6.77;5.20;;;;;;;11.25;100.00;100844.06;2094797;28;20222;-65
2023/04/03 00:09:48;;;;;;;5.93;4.60;;;;;;;11.29;100.00;100822.59;2091001;28;20658;-65
2023/04/03 00:10:49;;;;;;;5.93;4.43;;;;;;;11.30;100.00;100824.13;2081769;28;20840;-65
2023/04/03 00:11:49;;;;;;;6.20;4.33;;;;;;;11.28;100.00;100824.56;2083474;28;20259;-65
2023/04/03 00:12:50;;;;;;;5.50;4.50;;;;;;;11.27;100.00;100823.00;2089711;28;20176;-65
2023/04/03 00:13:50;;;;;;;4.97;4.10;;;;;;;11.30;100.00;100835.22;2082365;28;20234;-65
2023/04/03 00:14:51;;;;;;;5.63;4.33;;;;;;;11.34;100.00;100827.63;2089100;28;20188;-65
2023/04/03 00:15:52;;;;;;;5.67;4.33;;;;;;;11.31;100.00;100822.91;2090020;28;20776;-65
2023/04/03 00:16:52;;;;;;;6.27;4.30;;;;;;;11.32;100.00;100821.72;2089862;28;20216;-65
2023/04/03 00:17:53;;;;;;;5.87;4.17;;;;;;;11.36;100.00;100825.19;2089941;28;20446;-65
2023/04/03 00:18:53;;;;;;;6.30;4.00;;;;;;;11.37;100.00;100818.44;2090017;28;20186;-65
2023/04/03 00:19:54;;;;;;;5.70;4.60;;;;;;;11.26;100.00;100812.34;2090286;28;20168;-65
2023/04/03 00:20:54;;;;;;;4.97;4.30;;;;;;;11.24;100.00;100818.34;2089692;28;20212;-65
2023/04/03 00:21:55;;;;;;;5.13;4.60;;;;;;;11.18;100.00;100808.94;2082327;28;20170;-65
2023/04/03 00:22:56;;;;;;;5.60;3.93;;;;;;;11.13;100.00;100795.59;2097461;28;20187;-65
2023/04/03 00:23:56;;;;;;;7.80;4.63;;;;;;;11.29;100.00;100823.38;2085061;28;20192;-65
2023/04/03 00:24:56;;;;;;;4.93;3.93;;;;;;;11.29;100.00;100822.59;2087112;28;20207;-65
2023/04/03 00:25:57;;;;;;;5.87;3.57;;;;;;;11.23;100.00;100829.84;2089837;28;20291;-65
2023/04/03 00:26:57;;;;;;;4.63;4.13;;;;;;;11.18;100.00;100810.97;2093155;28;20614;-65
2023/04/03 00:27:58;;;;;;;4.40;3.93;;;;;;;11.22;100.00;100822.75;2095868;28;20176;-65
2023/04/03 00:28:58;;;;;;;4.30;3.90;;;;;;;11.21;100.00;100815.63;2089001;28;20708;-65
2023/04/03 00:29:59;;;;;;;5.20;3.87;;;;;;;11.18;100.00;100825.59;2082056;28;20556;-65
2023/04/03 00:31:00;;;;;;;4.80;3.90;;;;;;;11.18;100.00;100808.94;2089655;28;20212;-65
2023/04/03 00:32:00;;;;;;;4.40;3.90;;;;;;;11.12;100.00;100813.44;2090047;28;20216;-65
2023/04/03 00:33:01;;;;;;;8.27;3.70;;;;;;;11.16;100.00;100827.22;2090084;28;20173;-65
2023/04/03 00:34:02;;;;;;;5.00;3.60;;;;;;;11.15;100.00;100811.81;2091630;28;20198;-65
2023/04/03 00:35:02;;;;;;;6.60;3.70;;;;;;;11.13;100.00;100803.16;2086177;28;20212;-65
2023/04/03 00:36:09;;;;;;;7.50;4.20;;;;;;;10.69;100.00;100742.75;2081734;28;20246;-65
2023/04/03 00:37:09;;;;;;;5.03;3.70;;;;;;;11.08;100.00;100807.22;2083101;28;20176;-65
2023/04/03 00:38:10;;;;;;;5.00;3.57;;;;;;;11.08;100.00;100809.22;2088882;28;20935;-65
2023/04/03 00:39:10;;;;;;;5.40;3.70;;;;;;;11.03;100.00;100813.28;2082038;28;20215;-65
2023/04/03 00:40:12;;;;;;;6.40;3.83;;;;;;;11.01;100.00;100807.38;2089492;28;20176;-65
2023/04/03 00:41:12;;;;;;;5.47;4.00;;;;;;;10.98;100.00;100813.78;2089891;28;20253;-65
2023/04/03 00:42:13;;;;;;;5.43;3.70;;;;;;;10.95;100.00;100811.88;2089823;28;20427;-65
2023/04/03 00:43:23;;;;;;;6.23;3.20;;;;;;;10.91;100.00;100815.94;2085506;28;20196;-65
2023/04/03 00:44:32;;;;;;;4.27;3.40;;;;;;;10.82;100.00;100822.03;2086578;28;20556;-65
2023/04/03 00:45:39;;;;;;;7.03;3.97;;;;;;;10.85;100.00;100818.44;2084463;28;20522;-65
2023/04/03 00:46:40;;;;;;;6.00;3.60;;;;;;;10.78;100.00;100809.47;2086200;28;20533;-65
2023/04/03 00:47:41;;;;;;;8.93;3.60;;;;;;;10.32;100.00;100745.94;2085703;28;20440;-65
2023/04/03 00:48:45;;;;;;;6.93;4.07;;;;;;;10.64;100.00;100801.47;2081571;28;20173;-65
2023/04/03 00:49:45;;;;;;;5.97;3.37;;;;;;;10.76;100.00;100812.69;2081737;28;20802;-65
2023/04/03 00:50:47;;;;;;;4.20;2.93;;;;;;;10.70;100.00;100817.16;2081395;28;20538;-64
2023/04/03 00:51:48;;;;;;;3.77;3.30;;;;;;;10.69;100.00;100818.38;2081917;28;20176;-65
2023/04/03 00:52:49;;;;;;;4.90;3.20;;;;;;;10.71;100.00;100817.97;2081243;28;20471;-65
2023/04/03 00:53:55;;;;;;;4.07;2.90;;;;;;;10.75;100.00;100826.97;2088710;28;20561;-65
2023/04/03 00:55:01;;;;;;;4.73;2.90;;;;;;;9.87;100.00;100690.28;2092104;28;20196;-65
2023/04/03 00:56:01;;;;;;;4.37;3.47;;;;;;;10.67;100.00;100822.78;2085738;28;20439;-65
2023/04/03 00:57:03;;;;;;;9.67;3.70;;;;;;;10.54;100.00;100825.44;2086081;28;20450;-65
2023/04/03 00:58:06;;;;;;;3.73;3.10;;;;;;;10.47;100.00;100822.81;2089527;28;20688;-65
2023/04/03 00:59:16;;;;;;;3.50;2.93;;;;;;;10.41;100.00;100826.50;2086405;28;20848;-65
2023/04/03 01:00:20;;;;;;;3.70;3.17;;;;;;;10.33;100.00;100830.59;2084692;28;20485;-65
2023/04/03 01:01:25;;;;;;;5.20;3.20;;;;;;;10.34;100.00;100830.19;2087106;28;20453;-65
2023/04/03 01:02:26;;;;;;;3.30;3.00;;;;;;;10.35;100.00;100839.28;2081429;28;20408;-65
2023/04/03 01:03:26;;;;;;;5.13;2.90;;;;;;;10.32;100.00;100840.91;2082522;28;20407;-65
2023/04/03 01:04:36;;;;;;;3.80;2.90;;;;;;;10.33;100.00;100841.69;2089963;28;20183;-65
2023/04/03 01:05:37;;;;;;;8.23;3.10;;;;;;;10.38;100.00;100835.66;2081347;28;20173;-65
2023/04/03 01:06:38;;;;;;;4.57;3.30;;;;;;;10.40;100.00;100836.03;2089565;28;20627;-65
2023/04/03 01:07:39;;;;;;;4.30;3.37;;;;;;;10.41;100.00;100824.50;2089552;28;20467;-65
2023/04/03 01:08:40;;;;;;;3.60;2.90;;;;;;;10.53;100.00;100839.69;2089926;28;20748;-65
2023/04/03 01:09:41;;;;;;;3.77;2.73;;;;;;;10.32;100.00;100810.44;2085036;28;20906;-65
2023/04/03 01:10:42;;;;;;;3.20;2.90;;;;;;;10.56;100.00;100833.31;2081515;28;20556;-65
2023/04/03 01:11:42;;;;;;;5.47;3.10;;;;;;;10.58;100.00;100836.44;2081594;28;20430;-65
2023/04/03 01:12:46;;;;;;;4.00;2.90;;;;;;;10.61;100.00;100832.81;2081337;28;20618;-65
2023/04/03 01:13:46;;;;;;;4.93;3.07;;;;;;;10.65;100.00;100839.84;2081413;28;20181;-65
2023/04/03 01:14:50;;;;;;;6.47;2.73;;;;;;;10.66;100.00;100829.56;2081578;28;20991;-65
2023/04/03 01:15:51;;;;;;;5.17;3.00;;;;;;;10.67;100.00;100834.63;2081220;28;20223;-65
2023/04/03 01:16:53;;;;;;;7.67;3.10;;;;;;;10.62;100.00;100832.41;2088441;28;20442;-65
2023/04/03 01:17:58;;;;;;;3.40;2.27;;;;;;;10.50;100.00;100799.00;2083166;28;20295;-65
2023/04/03 01:19:00;;;;;;;7.23;2.83;;;;;;;10.67;100.00;100829.09;2087075;28;20447;-65
2023/04/03 01:20:22;;;;;;;3.47;2.20;;;;;;;10.72;100.00;100828.59;2089583;28;20432;-65
2023/04/03 01:21:28;;;;;;;4.20;2.63;;;;;;;10.71;100.00;100829.81;2088969;28;20462;-65
2023/04/03 01:22:39;;;;;;;6.80;2.80;;;;;;;10.75;100.00;100824.19;2082820;28;20541;-65
2023/04/03 01:24:06;;;;;;;6.50;2.50;;;;;;;10.60;100.00;100818.16;2087852;28;20451;-65
2023/04/03 01:25:06;;;;;;;3.30;2.30;;;;;;;10.57;100.00;100821.81;2080533;28;20985;-65
2023/04/03 01:26:07;;;;;;;2.93;2.40;;;;;;;10.52;100.00;100824.28;2088994;28;20947;-65
2023/04/03 01:27:10;;;;;;;3.67;2.20;;;;;;;10.47;100.00;100822.81;2089162;28;20615;-65
2023/04/03 01:28:26;;;;;;;2.93;2.40;;;;;;;10.36;100.00;100793.75;2089533;28;20198;-65
2023/04/03 01:29:26;;;;;;;2.93;2.10;;;;;;;10.51;100.00;100825.50;2082620;28;20415;-65
2023/04/03 01:30:33;;;;;;;4.07;2.27;;;;;;;10.50;100.00;100818.41;2092475;28;20548;-65
2023/04/03 01:32:03;;;;;;;3.30;2.03;;;;;;;10.60;100.00;100814.63;2092333;28;20191;-65
2023/04/03 01:33:04;;;;;;;3.60;2.20;;;;;;;10.58;100.00;100826.16;2076304;28;20469;-65
2023/04/03 01:34:04;;;;;;;2.87;1.70;;;;;;;10.59;100.00;100815.81;2081339;28;20423;-65
2023/04/03 01:35:08;;;;;;;4.47;2.03;;;;;;;10.61;100.00;100819.72;2092471;28;20259;-65
2023/04/03 01:36:10;;;;;;;6.67;2.20;;;;;;;10.56;100.00;100817.47;2097835;28;20177;-65
2023/04/03 01:37:10;;;;;;;5.53;2.03;;;;;;;10.58;100.00;100817.84;2092711;28;20449;-65
2023/04/03 01:38:11;;;;;;;11.17;3.03;;;;;;;10.62;100.00;100818.53;2088735;28;20515;-65
2023/04/03 01:39:12;;;;;;;5.93;2.10;;;;;;;10.03;100.00;100723.56;2089184;28;20210;-65
2023/04/03 01:40:12;;;;;;;2.60;1.63;;;;;;;10.63;100.00;100813.75;2088527;28;20176;-65
2023/04/03 01:41:13;;;;;;;4.20;2.00;;;;;;;10.64;100.00;100810.56;2081497;28;20518;-65
2023/04/03 01:42:13;;;;;;;3.63;1.90;;;;;;;10.41;100.00;100779.41;2081106;28;20682;-65
2023/04/03 01:43:14;;;;;;;3.43;1.67;;;;;;;10.19;100.00;100750.59;2081518;28;20706;-65
2023/04/03 01:44:14;;;;;;;2.10;1.63;;;;;;;10.69;100.00;100820.38;2086766;28;20191;-65
2023/04/03 01:45:15;;;;;;;6.30;2.13;;;;;;;10.68;100.00;100816.03;2089102;28;20190;-65
2023/04/03 01:46:16;;;;;;;5.03;1.80;;;;;;;10.73;100.00;100819.09;2085961;28;20606;-65
2023/04/03 01:47:17;;;;;;;2.63;1.70;;;;;;;10.72;100.00;100825.06;2080646;28;20179;-65
2023/04/03 01:48:17;;;;;;;2.77;1.60;;;;;;;10.77;100.00;100827.31;2081192;28;20419;-65
2023/04/03 01:49:18;;;;;;;2.23;1.47;;;;;;;10.77;100.00;100819.78;2081377;28;20658;-65
2023/04/03 01:50:18;;;;;;;2.73;1.50;;;;;;;10.76;100.00;100820.22;2081022;28;20691;-65
2023/04/03 01:51:19;;;;;;;2.60;1.60;;;;;;;10.78;100.00;100826.13;2088380;28;20265;-65
2023/04/03 01:52:19;;;;;;;3.40;1.90;;;;;;;10.83;100.00;100820.84;2083586;28;20224;-65
2023/04/03 01:53:19;;;;;;;2.97;1.70;;;;;;;10.86;100.00;100819.22;2085977;28;20559;-65
2023/04/03 01:54:20;;;;;;;3.80;1.73;;;;;;;10.88;100.00;100823.13;2085683;28;20260;-65
2023/04/03 01:55:20;;;;;;;2.67;1.70;;;;;;;10.89;100.00;100824.69;2094377;28;20179;-65
2023/04/03 01:56:21;;;;;;;2.40;1.60;;;;;;;10.84;100.00;100805.00;2087760;28;20179;-65
2023/04/03 01:57:21;;;;;;;2.37;1.73;;;;;;;10.19;100.00;100703.50;2080605;28;20207;-65
2023/04/03 01:58:22;;;;;;;2.97;1.60;;;;;;;10.94;100.00;100815.06;2081028;28;20196;-65
2023/04/03 01:59:22;;;;;;;2.80;1.77;;;;;;;10.94;100.00;100817.84;2080767;28;20216;-65
2023/04/03 02:00:22;;;;;;;3.37;2.07;;;;;;;10.16;100.00;100710.69;2081139;28;20175;-65
2023/04/03 02:01:23;;;;;;;3.13;1.70;;;;;;;10.92;100.00;100823.03;2081113;28;20658;-65
2023/04/03 02:02:23;;;;;;;3.63;1.77;;;;;;;10.92;100.00;100826.56;2084550;28;20187;-65
2023/04/03 02:03:24;;;;;;;2.67;1.80;;;;;;;10.92;100.00;100821.03;2086837;28;20164;-65
2023/04/03 02:04:24;;;;;;;4.47;1.60;;;;;;;10.59;100.00;100783.38;2081027;28;20622;-65
2023/04/03 02:05:25;;;;;;;3.60;1.80;;;;;;;10.88;100.00;100825.91;2080661;28;20307;-65
2023/04/03 02:06:25;;;;;;;5.00;1.93;;;;;;;10.85;100.00;100826.75;2081121;28;20573;-65
2023/04/03 02:07:26;;;;;;;6.90;2.47;;;;;;;10.84;100.00;100829.94;2080592;28;20724;-65
2023/04/03 02:08:26;;;;;;;4.47;2.00;;;;;;;10.83;100.00;100826.41;2087099;28;20592;-65
2023/04/03 02:09:27;;;;;;;3.60;2.00;;;;;;;10.82;100.00;100835.13;2089479;28;20241;-65
2023/04/03 02:10:27;;;;;;;7.17;2.20;;;;;;;10.84;100.00;100832.72;2085503;28;20764;-65
2023/04/03 02:11:28;;;;;;;3.90;2.00;;;;;;;10.83;100.00;100839.47;2083602;28;20536;-65
2023/04/03 02:12:28;;;;;;;3.10;1.80;;;;;;;10.85;100.00;100835.06;2087688;28;20177;-65
2023/04/03 02:13:29;;;;;;;1.97;1.70;;;;;;;10.86;100.00;100835.84;2080972;28;20618;-65
2023/04/03 02:14:29;;;;;;;3.23;1.50;;;;;;;10.85;100.00;100839.81;2081154;28;20179;-65
2023/04/03 02:15:30;;;;;;;2.40;1.50;;;;;;;10.75;100.00;100827.75;2080751;28;20184;-65
2023/04/03 02:16:30;;;;;;;2.60;1.50;;;;;;;10.81;100.00;100830.81;2080812;28;20198;-65
2023/04/03 02:17:31;;;;;;;5.67;1.80;;;;;;;10.86;100.00;100841.41;2087357;28;20252;-63
2023/04/03 02:18:31;;;;;;;3.37;1.70;;;;;;;10.86;100.00;100844.16;2089168;28;20196;-63
2023/04/03 02:19:31;;;;;;;2.20;1.70;;;;;;;10.84;100.00;100847.38;2089198;28;20621;-64
2023/04/03 02:20:32;;;;;;;2.73;2.00;;;;;;;10.31;100.00;100766.56;2087515;28;20171;-65
2023/04/03 02:21:32;;;;;;;2.73;1.90;;;;;;;10.78;100.00;100832.44;2081059;28;20180;-65
2023/04/03 02:22:33;;;;;;;2.40;1.70;;;;;;;10.81;100.00;100836.34;2089036;28;20253;-65
2023/04/03 02:23:35;;;;;;;1.83;1.40;;;;;;;10.81;100.00;100842.66;2089328;28;20244;-65
2023/04/03 02:24:36;;;;;;;2.53;1.47;;;;;;;10.83;100.00;100839.47;2082469;28;20196;-65
2023/04/03 02:25:36;;;;;;;3.80;1.53;;;;;;;10.57;100.00;100802.41;2086256;28;20422;-65
2023/04/03 02:26:37;;;;;;;3.90;1.53;;;;;;;10.80;100.00;100843.09;2084766;28;20661;-65
2023/04/03 02:27:37;;;;;;;2.83;1.63;;;;;;;10.78;100.00;100835.22;2080530;28;20272;-65
2023/04/03 02:28:38;;;;;;;1.87;1.50;;;;;;;10.77;100.00;100836.41;2080953;28;20184;-65
2023/04/03 02:29:39;;;;;;;2.23;1.60;;;;;;;10.75;100.00;100832.50;2081071;28;20216;-65
2023/04/03 02:30:39;;;;;;;1.60;1.30;;;;;;;10.72;100.00;100834.13;2080576;28;20517;-65
2023/04/03 02:31:40;;;;;;;2.40;1.60;;;;;;;10.67;100.00;100834.63;2080928;28;20188;-65
2023/04/03 02:32:42;;;;;;;3.00;1.60;;;;;;;10.65;100.00;100844.63;2087740;28;20202;-65
2023/04/03 02:33:42;;;;;;;1.83;1.33;;;;;;;10.64;100.00;100829.97;2082849;28;20188;-65
2023/04/03 02:34:42;;;;;;;2.97;1.60;;;;;;;10.63;100.00;100830.41;2085564;28;20424;-65
2023/04/03 02:35:43;;;;;;;2.50;1.60;;;;;;;10.62;100.00;100828.84;2085025;28;20208;-65
2023/04/03 02:36:44;;;;;;;2.53;1.60;;;;;;;10.60;100.00;100834.81;2083445;28;20620;-65
2023/04/03 02:37:44;;;;;;;2.33;1.50;;;;;;;10.04;100.00;100743.75;2088540;28;20229;-65
2023/04/03 02:38:45;;;;;;;2.13;1.50;;;;;;;10.32;100.00;100804.13;2088728;28;20233;-65
2023/04/03 02:39:45;;;;;;;2.97;1.40;;;;;;;10.62;100.00;100826.06;2084748;28;20180;-65
2023/04/03 02:40:46;;;;;;;5.33;1.60;;;;;;;10.55;100.00;100837.31;2088155;28;20685;-65
2023/04/03 02:41:46;;;;;;;3.53;1.70;;;;;;;10.55;100.00;100829.75;2082244;28;20192;-65
2023/04/03 02:42:47;;;;;;;2.87;1.83;;;;;;;10.55;100.00;100840.06;2085829;28;20558;-65
2023/04/03 02:43:47;;;;;;;1.87;1.57;;;;;;;10.55;100.00;100843.63;2089206;28;20192;-65
2023/04/03 02:44:48;;;;;;;3.37;1.60;;;;;;;10.54;100.00;100832.94;2086063;28;20181;-65
2023/04/03 02:45:48;;;;;;;2.33;1.60;;;;;;;10.49;100.00;100825.94;2080600;28;20674;-65
2023/04/03 02:46:49;;;;;;;3.60;1.60;;;;;;;10.32;100.00;100812.44;2080974;28;20563;-65
2023/04/03 02:47:49;;;;;;;4.40;1.77;;;;;;;10.49;100.00;100836.22;2088880;28;20180;-65
2023/04/03 02:48:50;;;;;;;3.73;1.50;;;;;;;10.25;100.00;100813.34;2088788;28;20195;-65
2023/04/03 02:49:52;;;;;;;2.53;1.50;;;;;;;10.47;100.00;100836.66;2082754;28;20196;-65
2023/04/03 02:50:53;;;;;;;2.93;1.60;;;;;;;9.86;100.00;100762.66;2086112;28;20200;-65
2023/04/03 02:51:53;;;;;;;1.80;1.60;;;;;;;10.44;100.00;100833.94;2084694;28;20443;-65
2023/04/03 02:52:54;;;;;;;3.27;1.67;;;;;;;10.42;100.00;100837.16;2083787;28;20266;-65
2023/04/03 02:53:54;;;;;;;2.83;1.67;;;;;;;10.40;100.00;100836.03;2086887;28;20557;-65
2023/04/03 02:54:55;;;;;;;3.20;1.83;;;;;;;10.37;100.00;100832.13;2087235;28;20229;-65
2023/04/03 02:55:55;;;;;;;1.77;1.40;;;;;;;10.31;100.00;100828.25;2080703;28;20188;-65
2023/04/03 02:56:56;;;;;;;1.97;1.50;;;;;;;10.37;100.00;100826.56;2080581;28;20275;-65
2023/04/03 02:57:57;;;;;;;2.20;1.53;;;;;;;10.35;100.00;100834.50;2087459;28;20188;-65
2023/04/03 02:58:57;;;;;;;1.90;1.47;;;;;;;10.10;100.00;100791.91;2088917;28;20447;-65
2023/04/03 02:59:57;;;;;;;5.00;1.50;;;;;;;10.34;100.00;100838.50;2083868;28;20722;-65
2023/04/03 03:00:58;;;;;;;7.17;2.07;;;;;;;10.30;100.00;100834.25;2084078;28;20199;-65
2023/04/03 03:01:58;;;;;;;3.90;1.60;;;;;;;10.30;100.00;100839.78;2086522;28;20173;-65
2023/04/03 03:02:59;;;;;;;5.87;2.03;;;;;;;10.27;100.00;100841.41;2081602;28;20213;-65
2023/04/03 03:04:00;;;;;;;2.53;1.73;;;;;;;10.16;100.00;100826.19;2088815;28;20180;-65
2023/04/03 03:05:00;;;;;;;3.17;1.60;;;;;;;10.16;100.00;100835.28;2080468;28;20183;-65
2023/04/03 03:06:06;;;;;;;3.27;1.50;;;;;;;10.26;100.00;100847.38;2080952;28;20188;-65
2023/04/03 03:07:07;;;;;;;2.50;1.70;;;;;;;10.24;100.00;100845.03;2080138;28;20169;-65
2023/04/03 03:08:07;;;;;;;3.87;1.77;;;;;;;10.24;100.00;100841.47;2086187;28;20536;-65
2023/04/03 03:09:07;;;;;;;2.30;1.57;;;;;;;9.56;100.00;100735.94;2089242;28;20676;-65
2023/04/03 03:10:08;;;;;;;3.93;1.83;;;;;;;10.24;100.00;100838.72;2085569;28;20197;-65
2023/04/03 03:11:09;;;;;;;7.17;2.10;;;;;;;9.66;100.00;100750.78;2080645;28;20252;-65
2023/04/03 03:12:10;;;;;;;7.37;2.50;;;;;;;10.14;100.00;100825.84;2081907;28;20180;-65
2023/04/03 03:13:10;;;;;;;2.73;1.50;;;;;;;10.21;100.00;100842.31;2089179;28;20414;-65
2023/04/03 03:14:11;;;;;;;4.77;2.00;;;;;;;10.24;100.00;100844.25;2080824;28;20570;-65
2023/04/03 03:15:11;;;;;;;3.53;1.70;;;;;;;10.27;100.00;100840.63;2080431;28;20197;-65
2023/04/03 03:16:12;;;;;;;4.57;1.87;;;;;;;10.38;100.00;100835.66;2086590;28;20623;-65
2023/04/03 03:17:12;;;;;;;5.87;1.80;;;;;;;10.36;100.00;100836.06;2083389;28;20606;-65
2023/04/03 03:18:12;;;;;;;8.50;1.93;;;;;;;10.34;100.00;100838.50;2080466;28;20257;-65
2023/04/03 03:19:13;;;;;;;6.30;1.80;;;;;;;10.34;100.00;100834.94;2080960;28;20239;-65
2023/04/03 03:20:15;;;;;;;3.50;1.90;;;;;;;10.34;100.00;100830.19;2080463;28;20310;-65
2023/04/03 03:21:15;;;;;;;8.27;2.13;;;;;;;10.30;100.00;100828.69;2080715;28;20174;-65
2023/04/03 03:22:17;;;;;;;2.33;1.60;;;;;;;10.32;100.00;100832.59;2086415;28;20426;-65
2023/04/03 03:23:17;;;;;;;2.70;1.60;;;;;;;10.30;100.00;100837.00;2081491;28;20192;-65
2023/04/03 03:24:17;;;;;;;3.13;1.90;;;;;;;10.29;100.00;100836.22;2087152;28;20426;-65
2023/04/03 03:25:18;;;;;;;5.53;2.13;;;;;;;10.33;100.00;100844.44;2088596;28;20551;-65
2023/04/03 03:26:18;;;;;;;3.83;2.00;;;;;;;10.21;100.00;100820.16;2084844;28;20207;-65
2023/04/03 03:27:19;;;;;;;3.57;1.90;;;;;;;10.31;100.00;100836.56;2080422;28;20596;-65
2023/04/03 03:28:20;;;;;;;3.00;2.10;;;;;;;10.31;100.00;100839.34;2080544;28;20203;-65
2023/04/03 03:29:20;;;;;;;4.77;1.90;;;;;;;10.26;100.00;100830.75;2081478;28;20169;-65
2023/04/03 03:30:21;;;;;;;3.90;1.90;;;;;;;10.31;100.00;100839.34;2089002;28;20200;-65
2023/04/03 03:31:21;;;;;;;6.33;2.30;;;;;;;9.87;100.00;100784.38;2088908;28;20576;-65
2023/04/03 03:32:22;;;;;;;5.47;2.37;;;;;;;9.79;100.00;100774.63;2082286;28;20556;-65
2023/04/03 03:33:23;;;;;;;3.07;1.93;;;;;;;10.26;100.00;100836.28;2086352;28;20227;-65
2023/04/03 03:34:23;;;;;;;3.93;2.10;;;;;;;10.31;100.00;100838.56;2084548;28;20196;-65
2023/04/03 03:35:24;;;;;;;4.80;2.40;;;;;;;10.23;100.00;100837.13;2080223;28;20425;-65
2023/04/03 03:36:25;;;;;;;2.87;1.80;;;;;;;10.15;100.00;100839.25;2080322;28;20269;-65
2023/04/03 03:37:25;;;;;;;3.37;2.07;;;;;;;10.17;100.00;100836.84;2081256;28;20551;-65
2023/04/03 03:38:26;;;;;;;2.17;1.80;;;;;;;10.18;100.00;100846.72;2088914;28;20426;-65
2023/04/03 03:39:26;;;;;;;9.77;2.50;;;;;;;10.09;100.00;100832.63;2081675;28;20817;-65
2023/04/03 03:40:27;;;;;;;10.97;3.23;;;;;;;10.03;100.00;100839.84;2088949;28;20193;-65
2023/04/03 03:41:27;;;;;;;6.20;2.60;;;;;;;9.96;100.00;100845.53;2083113;28;20200;-65
2023/04/03 03:42:28;;;;;;;6.53;2.37;;;;;;;9.86;100.00;100840.16;2085708;28;20657;-65
2023/04/03 03:43:28;;;;;;;11.03;3.10;;;;;;;9.83;100.00;100844.56;2086804;28;20196;-65
2023/04/03 03:44:29;;;;;;;13.37;3.20;;;;;;;9.85;100.00;100839.38;2082115;28;20208;-65
2023/04/03 03:45:30;;;;;;;6.13;2.50;;;;;;;9.80;100.00;100820.50;2081806;28;20172;-65
2023/04/03 03:46:30;;;;;;;6.97;3.10;;;;;;;9.95;100.00;100838.41;2082188;28;20425;-65
2023/04/03 03:47:31;;;;;;;7.30;2.73;;;;;;;9.92;100.00;100836.50;2081903;28;20395;-65
2023/04/03 03:48:31;;;;;;;5.83;2.57;;;;;;;9.51;100.00;100764.09;2089724;28;20760;-65
2023/04/03 03:49:32;;;;;;;8.80;3.07;;;;;;;10.02;100.00;100841.06;2090590;28;20180;-65
2023/04/03 03:50:33;;;;;;;18.93;4.47;;;;;;;10.07;100.00;100845.34;2085033;28;20211;-65
2023/04/03 03:51:33;;;;;;;7.33;3.10;;;;;;;10.08;100.00;100844.94;2082243;28;20658;-65
2023/04/03 03:52:33;;;;;;;14.10;3.87;;;;;;;10.10;100.00;100850.81;2081959;28;20211;-65
2023/04/03 03:53:34;;;;;;;17.73;4.77;;;;;;;10.10;100.00;100844.50;2083590;28;20169;-65
2023/04/03 03:54:34;;;;;;;12.63;3.17;;;;;;;10.13;100.00;100844.44;2091823;28;20591;-65
2023/04/03 03:55:35;;;;;;;10.87;3.50;;;;;;;9.58;100.00;100761.19;2081993;28;20172;-64
2023/04/03 03:56:35;;;;;;;10.37;2.87;;;;;;;10.12;100.00;100842.88;2086787;28;20192;-64
2023/04/03 03:57:36;;;;;;;6.23;2.53;;;;;;;10.12;100.00;100842.88;2088268;28;20195;-64
2023/04/03 03:58:37;;;;;;;10.93;3.23;;;;;;;10.12;100.00;100842.88;2088029;28;20185;-64
2023/04/03 03:59:37;;;;;;;3.03;2.43;;;;;;;9.51;100.00;100747.47;2089913;28;20269;-68
2023/04/03 04:00:38;;;;;;;4.17;3.13;;;;;;;10.05;100.00;100845.00;2087110;28;20941;-64
2023/04/03 04:01:39;;;;;;;4.07;2.47;;;;;;;10.05;100.00;100840.22;2082770;28;20303;-63
2023/04/03 04:02:39;;;;;;;7.83;3.03;;;;;;;10.02;100.00;100837.50;2089708;28;20180;-65
2023/04/03 04:03:40;;;;;;;9.17;2.97;;;;;;;9.91;100.00;100834.13;2089680;28;20429;-71
2023/04/03 04:04:40;;;;;;;4.83;3.00;;;;;;;9.89;100.00;100836.56;2081552;28;20247;-64
2023/04/03 04:05:41;;;;;;;5.40;2.67;;;;;;;9.82;100.00;100829.16;2081257;28;20181;-63
2023/04/03 04:06:41;;;;;;;3.10;2.63;;;;;;;9.78;100.00;100835.97;2082889;28;20192;-62
2023/04/03 04:07:42;;;;;;;5.33;3.03;;;;;;;9.70;100.00;100831.75;2088416;28;20223;-62
2023/04/03 04:08:42;;;;;;;3.97;3.03;;;;;;;8.87;100.00;100705.50;2085760;28;20192;-62
2023/04/03 04:09:43;;;;;;;4.30;3.03;;;;;;;9.69;100.00;100835.72;2081948;28;20242;-63
2023/04/03 04:10:43;;;;;;;4.67;2.83;;;;;;;9.68;100.00;100829.41;2081901;28;20207;-63
2023/04/03 04:11:44;;;;;;;3.50;2.90;;;;;;;9.72;100.00;100840.41;2083623;28;20214;-64
2023/04/03 04:12:45;;;;;;;4.07;3.20;;;;;;;9.73;100.00;100831.69;2090140;28;20175;-64
2023/04/03 04:13:46;;;;;;;5.53;3.20;;;;;;;9.71;100.00;100830.53;2089208;28;20439;-63
2023/04/03 04:14:46;;;;;;;5.53;3.47;;;;;;;9.64;100.00;100830.66;2083942;28;20227;-63
2023/04/03 04:15:47;;;;;;;5.03;3.20;;;;;;;9.32;100.00;100784.16;2081209;28;20221;-64
2023/04/03 04:16:47;;;;;;;5.70;3.70;;;;;;;9.69;100.00;100839.25;2084149;28;20624;-64
2023/04/03 04:17:48;;;;;;;6.63;3.83;;;;;;;9.74;100.00;100832.47;2088287;28;20311;-63
2023/04/03 04:18:49;;;;;;;9.03;3.97;;;;;;;9.71;100.00;100828.56;2087658;28;20215;-63
2023/04/03 04:19:49;;;;;;;4.57;3.73;;;;;;;9.27;100.00;100762.50;2080471;28;20191;-63
2023/04/03 04:20:50;;;;;;;6.90;3.93;;;;;;;9.70;100.00;100829.78;2080727;28;20257;-63
2023/04/03 04:21:50;;;;;;;5.47;4.27;;;;;;;9.63;100.00;100810.50;2082204;28;20190;-63
2023/04/03 04:22:51;;;;;;;6.27;4.00;;;;;;;9.69;100.00;100835.72;2091889;28;20625;-63
2023/04/03 04:23:51;;;;;;;4.60;3.40;;;;;;;9.70;100.00;100831.75;2083085;28;20678;-63
2023/04/03 04:24:51;;;;;;;6.80;4.23;;;;;;;9.02;100.00;100737.22;2081024;28;20730;-63
2023/04/03 04:25:52;;;;;;;4.77;3.93;;;;;;;9.61;100.00;100831.50;2080918;28;20190;-63
2023/04/03 04:26:52;;;;;;;6.23;4.27;;;;;;;9.60;100.00;100838.25;2082803;28;20176;-63
2023/04/03 04:27:53;;;;;;;5.33;3.83;;;;;;;9.63;100.00;100837.41;2088891;28;20565;-63
2023/04/03 04:28:53;;;;;;;7.50;4.53;;;;;;;9.65;100.00;100833.00;2080928;28;20194;-63
2023/04/03 04:29:54;;;;;;;11.30;4.67;;;;;;;9.56;100.00;100837.50;2081464;28;20193;-63
2023/04/03 04:30:54;;;;;;;8.20;4.67;;;;;;;9.62;100.00;100833.84;2087141;28;20211;-63
2023/04/03 04:31:55;;;;;;;10.30;4.30;;;;;;;9.65;100.00;100835.00;2090500;28;20252;-63
2023/04/03 04:32:55;;;;;;;6.87;4.30;;;;;;;9.64;100.00;100834.19;2090116;28;20186;-63
2023/04/03 04:33:56;;;;;;;13.43;5.20;;;;;;;9.79;100.00;100837.53;2088152;28;20563;-64
2023/04/03 04:34:56;;;;;;;14.93;4.60;;;;;;;9.81;100.00;100835.09;2080580;28;20178;-62
2023/04/03 04:35:57;;;;;;;12.20;4.80;;;;;;;9.82;100.00;100831.13;2081032;28;20178;-64
2023/04/03 04:36:57;;;;;;;7.90;5.37;;;;;;;9.90;100.00;100836.13;2081174;28;20243;-60
2023/04/03 04:37:58;;;;;;;7.07;4.50;;;;;;;9.99;100.00;100839.13;2088506;28;20200;-60
2023/04/03 04:38:58;;;;;;;8.67;4.93;;;;;;;9.99;100.00;100833.59;2084152;28;20214;-60
2023/04/03 04:39:59;;;;;;;6.67;4.70;;;;;;;10.04;100.00;100830.34;2081718;28;20211;-60
2023/04/03 04:40:59;;;;;;;8.70;5.47;;;;;;;10.05;100.00;100820.84;2085814;28;20281;-60
2023/04/03 04:42:00;;;;;;;6.67;4.80;;;;;;;10.03;100.00;100808.59;2095328;28;20182;-60
2023/04/03 04:43:00;;;;;;;9.10;5.17;;;;;;;9.73;100.00;100756.19;2088688;28;20183;-60